Time;durP1;ratioP1;P1;durP2;ratioP2;P2;SDS_P1;SDS_P2;PMS_P1;PMS_P2;Temp;Humidity;BMP_temperature;BMP_pressure;BME280_temperature;BME280_humidity;BME280_pressure;Samples;Min_cycle;Max_cycle;Signal;HPM_P1;HPM_P2
2022/04/04 00:01:12;;;;;;;3.95;3.53;;;2.80;99.90;;;;;;5033649;28;20210;-60
2022/04/04 00:03:41;;;;;;;3.75;3.25;;;2.80;99.90;;;;;;5033214;28;20206;-60
2022/04/04 00:06:08;;;;;;;3.13;2.80;;;2.80;99.90;;;;;;5033226;28;20206;-59
2022/04/04 00:08:35;;;;;;;7.38;4.55;;;2.80;99.90;;;;;;5036867;28;20756;-58
2022/04/04 00:11:02;;;;;;;3.83;3.42;;;2.80;99.90;;;;;;5041570;28;20198;-59
2022/04/04 00:13:29;;;;;;;4.95;2.95;;;2.80;99.90;;;;;;5035203;28;20686;-59
2022/04/04 00:15:57;;;;;;;5.25;3.53;;;2.80;99.90;;;;;;5033335;28;20674;-60
2022/04/04 00:18:24;;;;;;;4.10;3.28;;;2.90;99.90;;;;;;5033526;28;20571;-60
2022/04/04 00:20:53;;;;;;;4.18;3.78;;;2.80;99.90;;;;;;5033300;28;20203;-60
2022/04/04 00:23:20;;;;;;;4.70;3.75;;;2.80;99.90;;;;;;5033111;28;20238;-60
2022/04/04 00:25:49;;;;;;;3.95;3.53;;;2.90;99.90;;;;;;5036210;28;20203;-59
2022/04/04 00:28:16;;;;;;;4.40;3.97;;;2.80;99.90;;;;;;5052270;22;20233;-53
2022/04/04 00:30:43;;;;;;;4.50;3.95;;;2.90;99.90;;;;;;5037393;28;20218;-53
2022/04/04 00:33:10;;;;;;;3.70;3.40;;;2.90;99.90;;;;;;5037075;28;20206;-52
2022/04/04 00:35:37;;;;;;;7.22;4.05;;;2.90;99.90;;;;;;5037031;28;20225;-53
2022/04/04 00:38:08;;;;;;;4.72;3.60;;;2.90;99.90;;;;;;5036757;28;20209;-52
2022/04/04 00:40:35;;;;;;;6.40;4.10;;;2.90;99.90;;;;;;5037151;28;20246;-52
2022/04/04 00:43:02;;;;;;;5.18;4.50;;;2.90;99.90;;;;;;5036933;28;20203;-52
2022/04/04 00:45:30;;;;;;;5.88;3.90;;;2.90;99.90;;;;;;5037094;28;20205;-52
2022/04/04 00:47:57;;;;;;;4.05;3.65;;;2.80;99.90;;;;;;5036864;28;20199;-52
2022/04/04 00:50:24;;;;;;;4.20;3.80;;;2.80;99.90;;;;;;5036586;28;20234;-52
2022/04/04 00:52:52;;;;;;;4.28;3.88;;;2.80;99.90;;;;;;5036670;28;20213;-53
2022/04/04 00:55:21;;;;;;;6.20;4.35;;;2.80;99.90;;;;;;5036849;28;20261;-52
2022/04/04 00:57:48;;;;;;;7.18;4.07;;;2.80;99.90;;;;;;5036531;28;20234;-52
2022/04/04 01:00:16;;;;;;;4.82;4.13;;;2.80;99.90;;;;;;5036462;28;20238;-52
2022/04/04 01:02:43;;;;;;;4.78;4.20;;;2.80;99.90;;;;;;5038958;28;20209;-53
2022/04/04 01:05:11;;;;;;;5.60;3.95;;;2.80;99.90;;;;;;5036474;28;20203;-53
2022/04/04 01:07:38;;;;;;;5.18;4.28;;;2.80;99.90;;;;;;5036299;28;20247;-53
2022/04/04 01:10:08;;;;;;;5.47;4.47;;;2.80;99.90;;;;;;5036347;28;20263;-53
2022/04/04 01:12:37;;;;;;;6.55;4.47;;;2.80;99.90;;;;;;5036143;28;20701;-52
2022/04/04 01:15:04;;;;;;;5.60;4.35;;;2.80;99.90;;;;;;5035982;28;20227;-53
2022/04/04 01:17:32;;;;;;;5.80;4.15;;;2.80;99.90;;;;;;5036592;28;20210;-53
2022/04/04 01:19:59;;;;;;;5.00;4.50;;;2.80;99.90;;;;;;5036204;28;20312;-53
2022/04/04 01:22:26;;;;;;;3.75;3.38;;;2.80;99.90;;;;;;5036227;28;20218;-53
2022/04/04 01:24:56;;;;;;;4.65;4.25;;;2.80;99.90;;;;;;5036493;28;20241;-53
2022/04/04 01:27:23;;;;;;;5.00;4.10;;;2.80;99.90;;;;;;5036583;28;20627;-53
2022/04/04 01:29:50;;;;;;;4.22;3.83;;;2.80;99.90;;;;;;5036629;28;20265;-53
2022/04/04 01:32:17;;;;;;;7.00;4.93;;;2.80;99.90;;;;;;5036476;28;20206;-53
2022/04/04 01:34:44;;;;;;;4.38;3.97;;;2.80;99.90;;;;;;5036314;28;20218;-53
2022/04/04 01:37:11;;;;;;;4.00;3.65;;;2.80;99.90;;;;;;5035734;28;20229;-53
2022/04/04 01:39:39;;;;;;;6.65;4.65;;;2.80;99.90;;;;;;5036314;28;20625;-53
2022/04/04 01:42:08;;;;;;;5.15;4.07;;;2.80;99.90;;;;;;5036492;28;20226;-53
2022/04/04 01:44:35;;;;;;;4.05;3.50;;;2.90;99.90;;;;;;5036443;28;20576;-53
2022/04/04 01:47:02;;;;;;;5.90;4.13;;;2.90;99.90;;;;;;5036243;28;20569;-53
2022/04/04 01:49:29;;;;;;;5.00;4.30;;;2.80;99.90;;;;;;5035744;28;20741;-53
2022/04/04 01:51:56;;;;;;;4.80;3.92;;;2.80;99.90;;;;;;5035827;28;20202;-53
2022/04/04 01:54:23;;;;;;;6.57;4.28;;;2.90;99.90;;;;;;5035923;28;20609;-53
2022/04/04 01:56:50;;;;;;;9.15;4.35;;;2.90;99.90;;;;;;5037956;28;20624;-56
2022/04/04 01:59:19;;;;;;;5.47;3.75;;;2.90;99.90;;;;;;5035831;28;20222;-56
2022/04/04 02:01:46;;;;;;;5.20;4.10;;;2.90;99.90;;;;;;5035779;28;20206;-56
2022/04/04 02:04:13;;;;;;;4.50;4.10;;;2.90;99.90;;;;;;5035339;28;20210;-56
2022/04/04 02:06:40;;;;;;;5.47;4.00;;;2.90;99.90;;;;;;5035623;28;20237;-56
2022/04/04 02:09:08;;;;;;;6.60;3.97;;;2.90;99.90;;;;;;5035407;28;20226;-56
2022/04/04 02:11:35;;;;;;;4.53;4.05;;;2.90;99.90;;;;;;5035498;28;20210;-56
2022/04/04 02:14:03;;;;;;;4.45;4.05;;;2.90;99.90;;;;;;5035772;28;20549;-56
2022/04/04 02:16:32;;;;;;;5.03;4.45;;;2.90;99.90;;;;;;5035554;28;20636;-56
2022/04/04 02:18:59;;;;;;;4.35;3.95;;;2.90;99.90;;;;;;5035102;28;20733;-56
2022/04/04 02:21:26;;;;;;;4.55;4.10;;;2.90;99.90;;;;;;5034955;28;20674;-56
2022/04/04 02:23:53;;;;;;;4.63;3.78;;;2.90;99.90;;;;;;5035249;28;20317;-56
2022/04/04 02:26:20;;;;;;;4.93;4.50;;;2.90;99.90;;;;;;5035136;28;20229;-56
2022/04/04 02:28:48;;;;;;;4.78;4.25;;;2.90;99.90;;;;;;5034713;28;20657;-55
2022/04/04 02:31:15;;;;;;;4.70;4.30;;;2.90;99.90;;;;;;5034997;28;20183;-56
2022/04/04 02:33:43;;;;;;;5.95;4.82;;;2.90;99.90;;;;;;5034721;28;20213;-56
2022/04/04 02:36:11;;;;;;;3.70;3.42;;;2.90;99.90;;;;;;5034750;28;20276;-56
2022/04/04 02:38:38;;;;;;;8.43;5.10;;;2.90;99.90;;;;;;5034518;28;20230;-56
2022/04/04 02:41:05;;;;;;;5.57;4.43;;;2.90;99.90;;;;;;5034812;28;20206;-57
2022/04/04 02:43:33;;;;;;;5.10;4.28;;;2.90;99.90;;;;;;5034980;28;20332;-55
2022/04/04 02:46:00;;;;;;;5.70;4.43;;;2.90;99.90;;;;;;5034478;28;20663;-55
2022/04/04 02:48:27;;;;;;;5.18;4.68;;;2.80;99.90;;;;;;5033592;28;20599;-55
2022/04/04 02:50:56;;;;;;;6.07;5.18;;;2.90;99.90;;;;;;5034456;28;20206;-55
2022/04/04 02:53:23;;;;;;;6.45;4.35;;;2.90;99.90;;;;;;5034431;28;20205;-56
2022/04/04 02:58:34;;;;;;;7.25;5.00;;;2.80;99.90;;;;;;5034531;28;20224;-56
2022/04/04 03:01:03;;;;;;;9.40;5.45;;;2.80;99.90;;;;;;5034595;28;20208;-57
2022/04/04 03:03:30;;;;;;;5.90;5.35;;;2.80;99.90;;;;;;5034609;28;20206;-56
2022/04/04 03:05:58;;;;;;;6.18;5.22;;;2.80;99.90;;;;;;5034150;28;20697;-56
2022/04/04 03:08:25;;;;;;;7.88;6.00;;;2.80;99.90;;;;;;5034377;28;20229;-56
2022/04/04 03:10:52;;;;;;;6.68;6.05;;;2.80;99.90;;;;;;5034489;28;20627;-56
2022/04/04 03:13:19;;;;;;;7.45;5.75;;;2.70;99.90;;;;;;5034987;28;20594;-56
2022/04/04 03:15:46;;;;;;;7.47;6.78;;;2.70;99.90;;;;;;5033873;28;20218;-56
2022/04/04 03:18:13;;;;;;;7.72;6.93;;;2.70;99.90;;;;;;5034075;28;20198;-56
2022/04/04 03:20:41;;;;;;;9.15;7.75;;;2.70;99.90;;;;;;5034188;28;20206;-56
2022/04/04 03:23:09;;;;;;;9.10;8.05;;;2.70;99.90;;;;;;5034031;28;20552;-56
2022/04/04 03:25:36;;;;;;;9.52;7.90;;;2.70;99.90;;;;;;5034732;28;20194;-56
2022/04/04 03:28:03;;;;;;;9.52;7.75;;;2.60;99.90;;;;;;5033445;28;20693;-56
2022/04/04 03:30:31;;;;;;;9.57;8.57;;;2.60;99.90;;;;;;5033838;28;20237;-55
2022/04/04 03:32:59;;;;;;;8.88;8.00;;;2.70;99.90;;;;;;5034478;28;20198;-57
2022/04/04 03:35:28;;;;;;;9.48;8.57;;;2.60;99.90;;;;;;5033654;28;20218;-57
2022/04/04 03:38:00;;;;;;;8.90;7.75;;;2.60;99.90;;;;;;5033772;28;20198;-55
2022/04/04 03:40:30;;;;;;;10.40;8.30;;;2.60;99.90;;;;;;5033559;28;20222;-56
2022/04/04 03:43:02;;;;;;;9.50;8.60;;;2.60;99.90;;;;;;5033791;28;20207;-56
2022/04/04 03:45:29;;;;;;;9.48;8.57;;;2.60;99.90;;;;;;5033763;28;20675;-56
2022/04/04 03:47:57;;;;;;;9.30;8.10;;;2.60;99.90;;;;;;5033640;28;20213;-56
2022/04/04 03:50:25;;;;;;;8.80;8.00;;;2.60;99.90;;;;;;5033476;28;20229;-55
2022/04/04 03:52:55;;;;;;;8.25;7.47;;;2.60;99.90;;;;;;5034087;28;20202;-56
2022/04/04 03:55:24;;;;;;;8.65;7.75;;;2.60;99.90;;;;;;5034212;28;20305;-56
2022/04/04 03:57:53;;;;;;;9.18;8.25;;;2.70;99.90;;;;;;5034211;28;20221;-56
2022/04/04 04:00:21;;;;;;;11.73;7.15;;;2.70;99.90;;;;;;5033269;28;20599;-55
2022/04/04 04:02:48;;;;;;;8.52;7.60;;;2.70;99.90;;;;;;5033661;28;20670;-56
2022/04/04 04:05:15;;;;;;;10.43;8.75;;;2.70;99.90;;;;;;5033917;28;20198;-56
2022/04/04 04:09:35;;;;;;;9.00;8.20;;;2.80;99.90;;;;;;5091195;27;20580;-56
2022/04/04 04:12:03;;;;;;;8.80;7.90;;;2.80;99.90;;;;;;5090760;28;20599;-57
2022/04/04 04:14:30;;;;;;;8.63;7.82;;;2.80;99.90;;;;;;5091134;28;20207;-56
2022/04/04 04:16:57;;;;;;;12.82;8.60;;;2.80;99.90;;;;;;5090677;28;20199;-56
2022/04/04 04:22:08;;;;;;;9.77;8.38;;;2.90;99.90;;;;;;5091746;28;20651;-56
2022/04/04 04:24:37;;;;;;;10.95;9.98;;;2.90;99.90;;;;;;5091735;28;20196;-57
2022/04/04 04:27:04;;;;;;;10.73;9.23;;;2.90;99.90;;;;;;5091059;28;20204;-57
2022/04/04 04:29:32;;;;;;;9.43;8.43;;;2.90;99.90;;;;;;5091563;28;20220;-56
2022/04/04 04:31:59;;;;;;;10.45;9.55;;;2.90;99.90;;;;;;5090912;28;20200;-56
2022/04/04 04:34:26;;;;;;;11.52;10.40;;;2.90;99.90;;;;;;5090519;28;20691;-55
2022/04/04 04:36:53;;;;;;;14.82;10.13;;;2.90;99.90;;;;;;5090917;28;20204;-56
2022/04/04 04:39:20;;;;;;;11.30;10.30;;;2.90;99.90;;;;;;5091317;28;20216;-56
2022/04/04 04:41:49;;;;;;;11.88;10.68;;;2.90;99.90;;;;;;5091948;28;20207;-56
2022/04/04 04:44:16;;;;;;;12.52;11.32;;;2.90;99.90;;;;;;5090688;28;20208;-56
2022/04/04 04:46:44;;;;;;;12.55;11.45;;;3.00;99.90;;;;;;5090563;28;20204;-56
2022/04/04 04:49:11;;;;;;;13.52;12.20;;;3.00;99.90;;;;;;5090946;28;20600;-56
2022/04/04 04:51:38;;;;;;;13.25;11.85;;;3.00;99.90;;;;;;5090339;28;20212;-56
2022/04/04 04:54:05;;;;;;;13.35;12.13;;;3.00;99.90;;;;;;5090068;28;20679;-56
2022/04/04 04:56:32;;;;;;;14.10;12.75;;;3.00;99.90;;;;;;5090244;28;20209;-56
2022/04/04 04:59:01;;;;;;;13.75;12.55;;;3.00;99.90;;;;;;5090468;28;20212;-56
2022/04/04 05:01:28;;;;;;;13.82;12.52;;;3.00;99.90;;;;;;5089815;28;20197;-56
2022/04/04 05:03:55;;;;;;;13.35;11.93;;;3.10;99.90;;;;;;5090780;28;20216;-56
2022/04/04 05:06:22;;;;;;;12.18;11.00;;;3.10;99.90;;;;;;5089840;28;20205;-56
2022/04/04 05:08:49;;;;;;;13.73;12.27;;;3.10;99.90;;;;;;5089186;28;20601;-56
2022/04/04 05:11:16;;;;;;;12.93;11.52;;;3.10;99.90;;;;;;5089297;28;20211;-56
2022/04/04 05:13:43;;;;;;;11.88;10.68;;;3.20;99.90;;;;;;5090153;28;20200;-56
2022/04/04 05:16:14;;;;;;;11.82;10.57;;;3.20;99.90;;;;;;5089499;28;20672;-56
2022/04/04 05:18:42;;;;;;;11.50;10.50;;;3.20;99.90;;;;;;5088824;28;20767;-55
2022/04/04 05:21:10;;;;;;;10.15;9.18;;;3.20;99.90;;;;;;5075377;28;20748;-57
2022/04/04 05:23:37;;;;;;;10.40;9.40;;;3.30;99.90;;;;;;5075499;28;20197;-57
2022/04/04 05:26:04;;;;;;;12.63;10.35;;;3.30;99.90;;;;;;5075448;28;20568;-57
2022/04/04 05:28:31;;;;;;;9.85;8.90;;;3.30;99.90;;;;;;5075670;28;20225;-57
2022/04/04 05:30:59;;;;;;;10.98;9.70;;;3.40;99.80;;;;;;5075769;28;20201;-57
2022/04/04 05:33:27;;;;;;;8.55;7.68;;;3.40;99.50;;;;;;5075649;28;20223;-57
2022/04/04 05:35:54;;;;;;;11.95;7.10;;;3.50;99.00;;;;;;5075330;28;20201;-56
2022/04/04 05:38:21;;;;;;;10.00;8.93;;;3.50;98.70;;;;;;5075487;28;20228;-57
2022/04/04 05:40:48;;;;;;;10.55;8.68;;;3.60;98.20;;;;;;5074720;28;20604;-56
2022/04/04 05:43:17;;;;;;;10.65;9.43;;;3.60;97.50;;;;;;5075057;28;20208;-57
2022/04/04 05:45:44;;;;;;;10.05;9.05;;;3.70;97.30;;;;;;5075103;28;20246;-56
2022/04/04 05:48:11;;;;;;;11.38;8.45;;;3.70;97.10;;;;;;5075144;28;20221;-57
2022/04/04 05:50:40;;;;;;;9.98;8.27;;;3.70;96.80;;;;;;5073374;28;20679;-58
2022/04/04 05:53:09;;;;;;;10.18;8.70;;;3.80;96.70;;;;;;5072555;28;20220;-57
2022/04/04 05:55:36;;;;;;;9.20;7.97;;;3.80;96.40;;;;;;5070356;28;20202;-58
2022/04/04 05:58:03;;;;;;;10.20;8.18;;;3.90;96.00;;;;;;5074772;28;20288;-58
2022/04/04 06:00:30;;;;;;;9.88;8.15;;;3.90;95.60;;;;;;5074835;28;20203;-57
2022/04/04 06:02:57;;;;;;;10.70;8.60;;;4.00;95.30;;;;;;5074681;28;20205;-59
2022/04/04 06:05:24;;;;;;;8.60;7.68;;;4.10;94.70;;;;;;5074936;28;20220;-56
2022/04/04 06:07:53;;;;;;;9.65;7.50;;;4.20;94.20;;;;;;5073456;28;20681;-57
2022/04/04 06:10:20;;;;;;;8.88;7.88;;;4.20;93.60;;;;;;5074638;28;20225;-55
2022/04/04 06:12:47;;;;;;;9.95;8.18;;;4.30;93.20;;;;;;5074465;28;20205;-57
2022/04/04 06:15:15;;;;;;;8.63;7.70;;;4.40;92.90;;;;;;5073478;28;20525;-57
2022/04/04 06:17:43;;;;;;;9.15;7.90;;;4.40;92.40;;;;;;5074681;28;20284;-57
2022/04/04 06:20:12;;;;;;;8.68;7.60;;;4.50;92.00;;;;;;5074225;28;20227;-56
2022/04/04 06:22:41;;;;;;;8.20;7.38;;;4.50;91.20;;;;;;5073612;28;20665;-57
2022/04/04 06:25:12;;;;;;;8.65;7.75;;;4.60;90.90;;;;;;5074439;28;20201;-57
2022/04/04 06:27:39;;;;;;;8.90;7.13;;;4.60;90.70;;;;;;5074679;28;20190;-57
2022/04/04 06:30:08;;;;;;;10.15;8.48;;;4.60;90.20;;;;;;5091612;22;20237;-59
2022/04/04 06:32:35;;;;;;;7.72;6.57;;;4.70;89.90;;;;;;5033992;28;20186;-59
2022/04/04 06:35:05;;;;;;;7.35;6.28;;;4.70;89.20;;;;;;5035143;28;20210;-60
2022/04/04 06:37:32;;;;;;;8.23;7.20;;;4.80;88.90;;;;;;5034059;28;20689;-60
2022/04/04 06:39:59;;;;;;;11.45;7.40;;;4.80;88.40;;;;;;5035109;28;20752;-59
2022/04/04 06:42:28;;;;;;;11.52;7.75;;;4.90;87.30;;;;;;5034683;28;20199;-60
2022/04/04 06:44:57;;;;;;;7.60;6.32;;;5.00;86.50;;;;;;5034368;28;20204;-62
2022/04/04 06:47:26;;;;;;;7.93;7.05;;;5.10;85.70;;;;;;5033673;28;20290;-60
2022/04/04 06:49:53;;;;;;;7.95;7.03;;;5.10;84.90;;;;;;5034127;28;20228;-59
2022/04/04 06:52:21;;;;;;;9.75;7.25;;;5.20;84.20;;;;;;5034912;28;20215;-60
2022/04/04 06:54:48;;;;;;;8.20;6.03;;;5.30;83.00;;;;;;5034825;28;20202;-60
2022/04/04 06:57:16;;;;;;;7.97;6.65;;;5.30;82.40;;;;;;5033722;28;20212;-59
2022/04/04 06:59:45;;;;;;;8.80;7.20;;;5.40;81.60;;;;;;5035588;28;20249;-60
2022/04/04 07:02:12;;;;;;;9.88;6.53;;;5.40;80.60;;;;;;5035142;28;20747;-59
2022/04/04 07:04:40;;;;;;;7.80;6.60;;;5.40;80.30;;;;;;5034579;28;20208;-59
2022/04/04 07:07:08;;;;;;;11.40;6.22;;;5.40;79.50;;;;;;5035457;28;20243;-59
2022/04/04 07:09:35;;;;;;;8.25;6.70;;;5.40;79.20;;;;;;5034570;28;20574;-59
2022/04/04 07:12:03;;;;;;;6.90;5.43;;;5.40;78.90;;;;;;5035498;28;20223;-60
2022/04/04 07:14:31;;;;;;;8.45;6.43;;;5.40;78.20;;;;;;5036486;28;20572;-60
2022/04/04 07:17:01;;;;;;;9.95;6.97;;;5.50;77.40;;;;;;5034828;28;20550;-59
2022/04/04 07:19:33;;;;;;;9.82;7.25;;;5.50;76.90;;;;;;5034972;28;20726;-59
2022/04/04 07:22:00;;;;;;;7.85;6.50;;;5.60;76.20;;;;;;5035861;28;20291;-62
2022/04/04 07:24:27;;;;;;;7.95;6.57;;;5.60;74.90;;;;;;5034407;28;20203;-59
2022/04/04 07:26:54;;;;;;;9.25;7.00;;;5.70;74.60;;;;;;5033738;28;20211;-59
2022/04/04 07:29:21;;;;;;;9.20;6.50;;;5.70;73.80;;;;;;5034552;28;20704;-59
2022/04/04 07:31:48;;;;;;;11.45;6.38;;;5.70;73.30;;;;;;5033800;28;20232;-60
2022/04/04 07:34:18;;;;;;;7.28;6.05;;;5.70;73.10;;;;;;5032591;28;20688;-59
2022/04/04 07:36:45;;;;;;;6.82;6.10;;;5.80;72.30;;;;;;5034990;28;20272;-58
2022/04/04 07:39:12;;;;;;;7.13;6.43;;;5.80;71.20;;;;;;5034667;28;20196;-60
2022/04/04 07:41:39;;;;;;;8.25;6.40;;;5.90;70.00;;;;;;5034010;28;20597;-60
2022/04/04 07:44:07;;;;;;;6.40;5.80;;;5.90;69.70;;;;;;5034940;28;20203;-58
2022/04/04 07:46:34;;;;;;;8.95;5.40;;;5.90;69.20;;;;;;5035050;28;20204;-59
2022/04/04 07:49:01;;;;;;;7.07;6.25;;;6.00;68.80;;;;;;5033949;28;20250;-59
2022/04/04 07:51:29;;;;;;;8.32;5.15;;;6.00;67.80;;;;;;5033366;28;20562;-60
2022/04/04 07:53:56;;;;;;;9.77;5.75;;;6.10;67.70;;;;;;5034191;28;20219;-60
2022/04/04 07:56:23;;;;;;;8.10;6.10;;;6.10;67.00;;;;;;5035398;28;20203;-59
2022/04/04 07:58:51;;;;;;;7.90;4.88;;;6.10;66.40;;;;;;5033748;28;20208;-59
2022/04/04 08:01:18;;;;;;;6.00;5.40;;;6.20;65.80;;;;;;5035183;28;20229;-59
2022/04/04 08:03:45;;;;;;;5.95;5.38;;;6.20;65.20;;;;;;5034434;28;20295;-60
2022/04/04 08:06:12;;;;;;;5.20;4.70;;;6.30;64.40;;;;;;5033398;28;20290;-61
2022/04/04 08:08:41;;;;;;;7.22;5.50;;;6.30;63.70;;;;;;5034330;28;20228;-61
2022/04/04 08:11:09;;;;;;;8.63;5.55;;;6.30;62.50;;;;;;5033799;28;20229;-62
2022/04/04 08:13:37;;;;;;;7.72;5.13;;;6.40;61.50;;;;;;5034165;28;20692;-60
2022/04/04 08:16:05;;;;;;;6.15;4.85;;;6.40;61.10;;;;;;5033947;28;20213;-59
2022/04/04 08:18:32;;;;;;;7.53;5.28;;;6.40;59.80;;;;;;5034195;28;20204;-60
2022/04/04 08:21:00;;;;;;;6.68;5.30;;;6.40;59.70;;;;;;5033339;28;20335;-58
2022/04/04 08:23:29;;;;;;;7.47;4.63;;;6.50;59.40;;;;;;5034191;28;20609;-59
2022/04/04 08:25:59;;;;;;;4.95;4.45;;;6.60;59.10;;;;;;5033547;28;20213;-59
2022/04/04 08:28:27;;;;;;;6.15;4.63;;;6.60;58.70;;;;;;5032909;28;20208;-58
2022/04/04 08:30:55;;;;;;;5.28;4.78;;;6.60;58.10;;;;;;5033039;28;20309;-60
2022/04/04 08:33:23;;;;;;;8.48;6.05;;;6.60;58.10;;;;;;5033293;28;20212;-58
2022/04/04 08:35:52;;;;;;;8.23;4.70;;;6.70;58.20;;;;;;5036802;28;20626;-59
2022/04/04 08:38:20;;;;;;;6.55;5.05;;;6.70;57.40;;;;;;5045560;28;20215;-59
2022/04/04 08:40:49;;;;;;;5.40;4.90;;;6.70;57.50;;;;;;5046105;28;20259;-59
2022/04/04 08:43:19;;;;;;;5.20;4.70;;;6.70;57.40;;;;;;5047009;28;20205;-66
2022/04/04 08:45:50;;;;;;;5.63;5.10;;;6.70;57.20;;;;;;5044001;28;20215;-59
2022/04/04 08:48:17;;;;;;;5.85;4.95;;;6.70;57.40;;;;;;5041517;28;20194;-59
2022/04/04 08:50:45;;;;;;;8.15;5.50;;;6.70;57.60;;;;;;5043594;28;20230;-58
2022/04/04 08:53:12;;;;;;;6.95;5.38;;;6.70;57.90;;;;;;5045803;28;20210;-58
2022/04/04 08:55:39;;;;;;;5.40;4.90;;;6.70;57.60;;;;;;5053171;28;20215;-59
2022/04/04 08:58:06;;;;;;;7.05;5.38;;;6.70;57.80;;;;;;5046730;28;20204;-59
2022/04/04 09:00:38;;;;;;;7.57;5.75;;;6.70;58.00;;;;;;5048867;28;20221;-59
2022/04/04 09:03:06;;;;;;;8.00;5.38;;;6.70;58.40;;;;;;5053022;28;20173;-69
2022/04/04 09:05:35;;;;;;;7.47;6.25;;;6.60;58.90;;;;;;5045326;28;20664;-60
2022/04/04 09:08:05;;;;;;;6.70;5.85;;;6.50;59.80;;;;;;5038472;28;20209;-60
2022/04/04 09:10:37;;;;;;;9.30;6.55;;;6.40;61.00;;;;;;5036591;28;20265;-59
2022/04/04 09:13:09;;;;;;;8.23;5.93;;;6.40;62.60;;;;;;5036931;28;20188;-60
2022/04/04 09:15:59;;;;;;;6.75;5.55;;;6.30;65.00;;;;;;5037184;28;20589;-59
2022/04/04 09:18:46;;;;;;;6.80;6.15;;;6.20;68.10;;;;;;5035902;28;20192;-59
2022/04/04 09:21:15;;;;;;;11.27;6.90;;;6.20;70.40;;;;;;5036850;28;20263;-59
2022/04/04 09:23:55;;;;;;;10.02;7.20;;;6.10;72.00;;;;;;5016960;28;20570;-59
2022/04/04 09:26:31;;;;;;;7.10;6.40;;;6.10;73.50;;;;;;5024083;28;20242;-59
2022/04/04 09:28:59;;;;;;;6.90;6.30;;;6.20;75.50;;;;;;5036181;28;20199;-60
2022/04/04 09:31:28;;;;;;;7.05;6.10;;;6.10;76.70;;;;;;5042787;28;20258;-60
2022/04/04 09:34:01;;;;;;;8.50;6.72;;;6.00;79.20;;;;;;5043874;28;20200;-59
2022/04/04 09:36:28;;;;;;;7.97;6.85;;;5.90;81.10;;;;;;5043898;28;20259;-60
2022/04/04 09:39:08;;;;;;;11.82;7.03;;;5.80;84.40;;;;;;5043780;28;20534;-58
2022/04/04 09:41:37;;;;;;;8.35;7.00;;;5.70;86.90;;;;;;5043177;28;20234;-59
2022/04/04 09:44:06;;;;;;;8.93;8.02;;;5.50;88.60;;;;;;5045326;28;20208;-59
2022/04/04 09:46:39;;;;;;;7.85;7.05;;;5.50;90.20;;;;;;5040168;28;20215;-57
2022/04/04 09:49:09;;;;;;;7.93;7.20;;;5.50;90.70;;;;;;5039602;28;20195;-60
2022/04/04 09:51:42;;;;;;;7.55;6.60;;;5.40;91.40;;;;;;5040379;28;20228;-59
2022/04/04 09:54:11;;;;;;;8.65;7.85;;;5.40;92.00;;;;;;5039290;28;20203;-60
2022/04/04 09:56:38;;;;;;;9.05;8.07;;;5.40;92.20;;;;;;5035329;28;20207;-59
2022/04/04 09:59:05;;;;;;;9.43;8.43;;;5.50;92.40;;;;;;5036479;28;20222;-59
2022/04/04 10:01:34;;;;;;;11.02;7.95;;;5.50;92.50;;;;;;5036658;28;20220;-59
2022/04/04 10:04:03;;;;;;;9.05;8.15;;;5.60;92.50;;;;;;5038660;28;20213;-60
2022/04/04 10:06:31;;;;;;;8.50;7.43;;;5.70;92.50;;;;;;5037312;28;20204;-60
2022/04/04 10:08:59;;;;;;;8.77;7.88;;;5.80;92.50;;;;;;5036773;28;20218;-60
2022/04/04 10:11:28;;;;;;;8.80;6.95;;;6.00;92.10;;;;;;5037504;28;20233;-59
2022/04/04 10:13:55;;;;;;;8.20;6.82;;;6.20;91.40;;;;;;5037081;28;20211;-60
2022/04/04 10:16:23;;;;;;;8.60;7.60;;;6.30;90.60;;;;;;5035742;28;20206;-60
2022/04/04 10:18:53;;;;;;;10.43;7.53;;;6.40;90.10;;;;;;5035864;28;20853;-60
2022/04/04 10:21:22;;;;;;;8.43;7.63;;;6.40;90.10;;;;;;5036566;28;20217;-61
2022/04/04 10:23:54;;;;;;;8.25;7.45;;;6.40;90.10;;;;;;5035666;28;20552;-59
2022/04/04 10:26:22;;;;;;;8.38;7.65;;;6.40;90.20;;;;;;5035122;28;20203;-59
2022/04/04 10:28:50;;;;;;;8.63;7.57;;;6.30;90.30;;;;;;5036452;28;20203;-59
2022/04/04 10:31:19;;;;;;;9.65;8.15;;;6.30;90.40;;;;;;5035232;28;20227;-59
2022/04/04 10:33:47;;;;;;;8.95;8.05;;;6.30;90.60;;;;;;5034739;28;20560;-59
2022/04/04 10:36:16;;;;;;;9.20;8.30;;;6.20;90.80;;;;;;5035325;28;20205;-59
2022/04/04 10:38:50;;;;;;;8.07;7.35;;;6.30;91.10;;;;;;5035396;28;20207;-60
2022/04/04 10:41:19;;;;;;;14.98;8.80;;;6.30;91.30;;;;;;5034224;28;20318;-59
2022/04/04 10:43:48;;;;;;;10.05;9.05;;;6.30;91.50;;;;;;5034904;28;20250;-60
2022/04/04 10:46:18;;;;;;;11.52;9.15;;;6.30;91.90;;;;;;5034357;28;20239;-58
2022/04/04 10:48:49;;;;;;;11.38;8.93;;;6.20;92.20;;;;;;5033490;28;20708;-59
2022/04/04 10:51:18;;;;;;;11.68;10.13;;;6.10;92.70;;;;;;5035167;28;20227;-60
2022/04/04 10:53:51;;;;;;;10.40;9.25;;;6.00;93.20;;;;;;5034713;28;20275;-59
2022/04/04 10:56:21;;;;;;;12.57;9.88;;;5.90;93.70;;;;;;5034442;28;20187;-59
2022/04/04 10:58:49;;;;;;;9.82;8.82;;;5.80;94.40;;;;;;5033749;28;20201;-60
2022/04/04 11:01:19;;;;;;;10.57;9.48;;;5.70;95.40;;;;;;5034026;28;20220;-59
2022/04/04 11:04:00;;;;;;;10.35;9.35;;;5.60;95.90;;;;;;5034160;28;20298;-59
2022/04/04 11:09:36;;;;;;;11.75;9.75;;;5.30;97.60;;;;;;5033945;28;20432;-58
2022/04/04 11:12:15;;;;;;;10.90;9.80;;;5.20;98.90;;;;;;5033870;28;20230;-59
2022/04/04 11:14:57;;;;;;;13.32;11.93;;;5.00;99.90;;;;;;5034418;28;20223;-60
2022/04/04 11:17:43;;;;;;;12.15;10.95;;;4.90;99.90;;;;;;5034326;28;20190;-58
2022/04/04 11:20:32;;;;;;;14.05;11.38;;;4.90;99.90;;;;;;5033503;28;20221;-59
2022/04/04 11:23:03;;;;;;;12.02;10.73;;;4.80;99.90;;;;;;5035404;28;20233;-58
2022/04/04 11:25:35;;;;;;;12.68;11.38;;;4.80;99.90;;;;;;5035219;28;20194;-59
2022/04/04 11:28:02;;;;;;;12.60;11.30;;;4.70;99.90;;;;;;5032374;28;20261;-59
2022/04/04 11:30:29;;;;;;;13.32;11.50;;;4.70;99.90;;;;;;5033710;28;20230;-58
2022/04/04 11:32:59;;;;;;;15.20;10.85;;;4.70;99.90;;;;;;5033538;28;20677;-58
2022/04/04 11:35:30;;;;;;;14.10;11.60;;;4.60;99.90;;;;;;5033633;28;20208;-59
2022/04/04 11:38:00;;;;;;;14.25;12.02;;;4.60;99.90;;;;;;5033271;28;20202;-59
2022/04/04 11:40:33;;;;;;;12.82;11.65;;;4.50;99.90;;;;;;5033803;28;20251;-59
2022/04/04 11:43:03;;;;;;;13.30;11.63;;;4.50;99.90;;;;;;5034454;28;20268;-60
2022/04/04 11:45:35;;;;;;;12.55;11.25;;;4.40;99.90;;;;;;5032745;28;20616;-57
2022/04/04 11:48:06;;;;;;;12.32;11.13;;;4.40;99.90;;;;;;5033354;28;20194;-59
2022/04/04 11:50:37;;;;;;;11.95;10.68;;;4.30;99.90;;;;;;5033459;28;20602;-59
2022/04/04 11:53:06;;;;;;;12.40;11.13;;;4.20;99.90;;;;;;5032882;28;20726;-60
2022/04/04 11:55:35;;;;;;;12.85;11.52;;;4.30;99.90;;;;;;5033628;28;20213;-59
2022/04/04 11:58:10;;;;;;;14.35;10.63;;;4.30;99.90;;;;;;5033078;28;20212;-59
2022/04/04 12:00:38;;;;;;;11.45;10.25;;;4.30;99.90;;;;;;5034123;28;20217;-59
2022/04/04 12:03:09;;;;;;;12.13;10.20;;;4.30;99.90;;;;;;5034177;28;20207;-60
2022/04/04 12:05:37;;;;;;;12.50;11.25;;;4.30;99.90;;;;;;5033768;28;20210;-59
2022/04/04 12:08:06;;;;;;;12.02;10.90;;;4.30;99.90;;;;;;5033277;28;20198;-57
2022/04/04 12:10:36;;;;;;;11.70;10.60;;;4.30;99.90;;;;;;5033201;28;20714;-59
2022/04/04 12:13:07;;;;;;;10.13;9.15;;;4.20;99.90;;;;;;5033681;28;20195;-60
2022/04/04 12:15:36;;;;;;;11.65;10.50;;;4.20;99.90;;;;;;5033291;28;20198;-58
2022/04/04 12:18:05;;;;;;;10.32;9.35;;;4.20;99.90;;;;;;5041724;28;20234;-59
2022/04/04 12:20:40;;;;;;;10.45;9.35;;;4.20;99.90;;;;;;5044053;28;20222;-59
2022/04/04 12:25:56;;;;;;;9.80;8.80;;;4.20;99.90;;;;;;5042230;28;20225;-59
2022/04/04 12:28:25;;;;;;;10.70;9.32;;;4.20;99.90;;;;;;5034117;28;20716;-59
2022/04/04 12:30:53;;;;;;;10.68;9.57;;;4.20;99.90;;;;;;5037944;28;20233;-59
2022/04/04 12:33:21;;;;;;;10.48;9.48;;;4.20;99.90;;;;;;5038257;28;20206;-61
2022/04/04 12:35:49;;;;;;;11.38;9.60;;;4.30;99.90;;;;;;5037528;28;20226;-59
2022/04/04 12:38:28;;;;;;;11.15;10.05;;;4.30;99.90;;;;;;5038225;28;20217;-60
2022/04/04 12:41:06;;;;;;;9.82;8.88;;;4.30;99.90;;;;;;5038222;28;20222;-59
2022/04/04 12:43:35;;;;;;;10.70;9.70;;;4.30;99.90;;;;;;5037800;28;20194;-60
2022/04/04 12:46:03;;;;;;;10.25;9.25;;;4.20;99.90;;;;;;5037569;28;20238;-59
2022/04/04 12:48:35;;;;;;;9.73;8.80;;;4.20;99.90;;;;;;5037806;28;20206;-59
2022/04/04 12:51:03;;;;;;;10.80;9.80;;;4.30;99.90;;;;;;5036882;28;20317;-60
2022/04/04 12:53:47;;;;;;;10.90;9.80;;;4.30;99.90;;;;;;5037214;28;20714;-59
2022/04/04 12:56:14;;;;;;;11.52;10.43;;;4.30;99.90;;;;;;5036978;28;20187;-60
2022/04/04 12:58:43;;;;;;;11.93;10.70;;;4.30;99.90;;;;;;5038507;28;20202;-60
2022/04/04 13:01:11;;;;;;;11.90;10.70;;;4.30;99.90;;;;;;5037933;28;20219;-59
2022/04/04 13:03:48;;;;;;;10.85;9.75;;;4.30;99.90;;;;;;5037380;28;20217;-58
2022/04/04 13:06:16;;;;;;;9.95;9.05;;;4.30;99.90;;;;;;5037218;28;20718;-59
2022/04/04 13:08:53;;;;;;;9.80;8.43;;;4.30;99.90;;;;;;5039159;28;20581;-59
2022/04/04 13:11:20;;;;;;;10.50;9.40;;;4.30;99.90;;;;;;5038823;28;20230;-57
2022/04/04 13:14:04;;;;;;;9.95;8.95;;;4.30;99.90;;;;;;5037839;28;20203;-60